Latest Coastal Weather Observations for Williamtown

IDN60701

Issued at 6:01 pm EST Tuesday 24 May 2016 (issued every 10 minutes, with the page automatically refreshed every 10 minutes)

About coastal observations | Map of coastal stations | Coastal observations for NSW | Marine services | Other Formats
Station Details ID: 061078 Name: WILLIAMTOWN RAAF Lat: -32.79 Lon: 151.84 Height: 9.0 m
Data from the previous 72 hours. | See also: Recent months at Williamtown
Date/Time
EST
Temp

°C
Wind Pressure Rain
since 9am
mm
Weather Cloud Vis
km
Sea
Height
m
Swell
Dir
 
Speed
knots
Gust
knots
hPa Trend Height
m
Period
s
Dir
24/05:30pm 17.0 WNW 12 16 1015.1 - 0.0 - - 10 - - - -
24/05:00pm 18.2 WNW 12 18 1014.9 - 0.0 - - 10 - - - -
24/04:30pm 19.3 WNW 14 18 1014.5 - 0.0 - - 10 - - - -
24/04:00pm 20.3 WNW 14 17 1014.2 - 0.0 - - 10 - - - -
24/03:30pm 20.8 WNW 13 19 1014.0 - 0.0 - - 10 - - - -
24/03:00pm 20.8 WNW 17 22 1014.0 F 0.0 - - 10 - - - -
24/02:30pm 20.8 WNW 17 22 1014.0 - 0.0 - - 10 - - - -
24/02:00pm 20.6 WNW 16 25 1014.2 - 0.0 - - 10 - - - -
24/01:57pm 20.6 WNW 15 25 1014.2 - 0.0 - - 10 - - - -
24/01:30pm 20.2 WNW 17 23 1014.5 - 0.0 - - 10 - - - -
24/01:07pm 20.1 NW 17 27 1014.9 - 0.0 - - 10 - - - -
24/01:00pm 20.1 WNW 16 22 1015.0 - 0.0 - - 10 - - - -
24/12:30pm 18.9 WNW 19 26 1015.6 - 0.0 - - 10 - - - -
24/12:00pm 18.9 WNW 19 25 1016.1 F 0.0 - - 10 - - - -
24/11:30am 18.2 WNW 19 25 1016.9 - 0.0 - - 10 - - - -
24/11:00am 17.9 WNW 16 24 1017.7 - 0.0 - - 10 - - - -
24/10:30am 17.0 NW 17 22 1018.3 - 0.0 - - 10 - - - -
24/10:00am 15.9 NW 17 23 1018.8 - 0.0 - Mostly clear 10 - - - -
24/09:30am 15.3 WNW 18 22 1019.1 - 0.0 - Mostly clear 10 - - - -
24/09:00am 14.4 WNW 17 22 1019.1 F 0.0 - Mostly clear 10 - - - -
24/08:30am 13.3 WNW 15 19 1019.0 - 0.0 - - 10 - - - -
24/08:00am 11.8 WNW 12 16 1018.9 - 0.0 - - 10 - - - -
24/07:30am 10.4 WNW 12 15 1018.7 - 0.0 - - 10 - - - -
24/07:00am 9.4 WNW 11 15 1018.9 - 0.0 - - 10 - - - -
24/06:30am 10.0 WNW 14 19 1018.6 - 0.0 - - 10 - - - -
24/06:00am 10.1 WNW 16 19 1018.5 F 0.0 - - 10 - - - -
24/05:30am 10.4 WNW 16 19 1018.5 - 0.0 - - 10 - - - -
24/05:00am 10.2 WNW 12 16 1018.8 - 0.0 - - 10 - - - -
24/04:30am 10.5 WNW 14 17 1018.8 - 0.0 - - 10 - - - -
24/04:00am 10.9 WNW 14 17 1018.3 - 0.0 - - 10 - - - -
24/03:30am 11.5 NW 15 20 1018.5 - 0.0 - - 10 - - - -
24/03:00am 11.5 NW 9 14 1018.4 R 0.0 - - 10 - - - -
24/02:30am 11.5 WNW 14 16 1018.2 - 0.0 - - 10 - - - -
24/02:00am 11.3 NW 10 13 1018.2 - 0.0 - - 10 - - - -
24/01:30am 11.5 NW 11 14 1018.1 - 0.0 - - 10 - - - -
24/01:00am 11.8 NW 10 14 1017.9 - 0.0 - - 10 - - - -
24/12:30am 12.3 WNW 9 13 1017.9 - 0.0 - - 10 - - - -
24/12:00am 12.6 WNW 11 14 1018.1 R 0.0 - - 10 - - - -
 
Date/Time
EST
Temp

°C
Wind Pressure Rain
since 9am
mm
Weather Cloud Vis
km
Sea
Height
m
Swell
Dir
 
Speed
knots
Gust
knots
hPa Trend Height
m
Period
s
Dir
23/11:30pm 13.9 WNW 11 15 1018.1 - 0.0 - - 10 - - - -
23/11:00pm 14.0 WNW 14 17 1017.9 - 0.0 - - 10 - - - -
23/10:30pm 14.3 WNW 12 15 1017.8 - 0.0 - - 10 - - - -
23/10:00pm 14.9 WNW 11 15 1017.7 - 0.0 - - 10 - - - -
23/09:30pm 15.1 W 11 15 1017.5 - 0.0 - - 10 - - - -
23/09:00pm 16.2 W 10 14 1017.3 R 0.0 - - 10 - - - -
23/08:30pm 14.9 W 9 12 1017.0 - 0.0 - - 10 - - - -
23/08:00pm 15.7 WSW 8 10 1017.0 - 0.0 - - 10 - - - -
23/07:30pm 17.7 W 9 14 1016.5 - 0.0 - - 10 - - - -
23/07:00pm 18.9 WNW 10 13 1015.9 - 0.0 - - 10 - - - -
23/06:30pm 19.9 W 12 16 1015.8 - 0.0 - - 10 - - - -
23/06:00pm 21.0 WSW 15 20 1014.8 R 0.0 - - 10 - - - -
23/05:30pm 22.2 WSW 16 22 1013.8 - 0.0 - - 10 - - - -
23/05:02pm 23.2 WSW 17 29 1012.9 - 0.0 - Partly cloudy 10 - - - -
23/05:00pm 23.1 WSW 15 21 1012.8 - 0.0 - Partly cloudy 10 - - - -
23/04:30pm 24.6 W 11 16 1012.3 - 0.0 - Partly cloudy 10 - - - -
23/04:00pm 25.5 W 13 17 1012.2 - 0.0 - Partly cloudy 10 - - - -
23/03:30pm 26.9 WNW 17 24 1011.7 - 0.0 - Partly cloudy 10 - - - -
23/03:00pm 27.8 WNW 20 28 1011.2 F 0.0 - - 10 - - - -
23/02:30pm 28.3 WNW 19 30 1011.0 - 0.0 - - 10 - - - -
23/02:00pm 27.9 WNW 23 32 1010.9 - 0.0 - - 10 - - - -
23/01:30pm 27.7 WNW 22 34 1011.3 - 0.0 - - 10 - - - -
23/01:07pm 27.7 NW 20 31 1011.4 - 0.0 - - 10 - - - -
23/01:00pm 27.5 WNW 20 27 1011.5 - 0.0 - - 10 - - - -
23/12:37pm 27.6 WNW 17 27 1011.9 - 0.0 - - 10 - - - -
23/12:30pm 27.6 NW 22 28 1012.0 - 0.0 - - 10 - - - -
23/12:14pm 27.4 WNW 18 28 1012.3 - 0.0 - - 10 - - - -
23/12:00pm 26.9 WNW 18 26 1012.8 F 0.0 - Partly cloudy 10 - - - -
23/11:39am 26.8 WNW 15 27 1013.2 - 0.0 - Mostly clear 10 - - - -
23/11:30am 24.8 NW 9 15 1013.4 - 0.0 - Mostly clear 10 - - - -
23/11:00am 22.5 NNW 8 10 1014.2 - 0.0 - Mostly clear 10 - - - -
23/10:30am 21.6 NNW 8 11 1015.0 - 0.0 - - 10 - - - -
23/10:00am 21.0 NW 12 15 1015.6 - 0.0 - - 10 - - - -
23/09:30am 20.2 WNW 9 11 1016.0 - 0.0 - - 10 - - - -
23/09:00am 18.1 NW 7 9 1016.0 F 0.0 - - 10 - - - -
23/08:30am 16.4 NNW 6 7 1016.3 - 0.0 - - 10 - - - -
23/08:00am 15.2 NW 6 8 1016.7 - 0.0 - - 10 - - - -
23/07:30am 12.8 NW 6 8 1016.7 - 0.0 Fog patches - 10 - - - -
23/07:00am 11.4 NW 7 7 1016.6 - 0.0 - - 10 - - - -
23/06:30am 11.7 N 3 4 1016.6 - 0.0 - - 10 - - - -
23/06:00am 11.9 NW 2 4 1016.7 F 0.0 - - 10 - - - -
23/05:30am 12.5 NW 6 6 1016.9 - 0.0 - - 10 - - - -
23/05:00am 12.5 NW 6 8 1016.9 - 0.0 - - 10 - - - -
23/04:30am 12.1 NW 6 7 1017.1 - 0.0 - - 10 - - - -
23/04:00am 11.4 WNW 2 6 1017.2 - 0.0 - - 10 - - - -
23/03:30am 11.4 CALM 0 0 1017.3 - 0.0 - - 10 - - - -
23/03:00am 11.7 NW 5 5 1017.6 F 0.0 - - 10 - - - -
23/02:42am 11.3 CALM 0 0 1017.9 - 0.0 - - 10 - - - -
23/02:30am 11.2 CALM 0 0 1018.0 - 0.0 - - 3 - - - -
23/02:21am 11.5 CALM 0 0 1018.1 - 0.0 - - 6 - - - -
23/02:00am 11.8 CALM 0 0 1018.2 - 0.0 - - 10 - - - -
23/01:30am 12.6 NNW 2 3 1018.1 - 0.0 - - 10 - - - -
23/01:00am 12.8 NNW 4 5 1018.3 - 0.0 - - 10 - - - -
23/12:30am 12.3 NNW 4 5 1018.4 - 0.0 - - 10 - - - -
23/12:00am 13.1 CALM 0 0 1018.8 F 0.0 - - 9 - - - -
 
Date/Time
EST
Temp

°C
Wind Pressure Rain
since 9am
mm
Weather Cloud Vis
km
Sea
Height
m
Swell
Dir
 
Speed
knots
Gust
knots
hPa Trend Height
m
Period
s
Dir
22/11:30pm 12.9 CALM 0 0 1019.0 - 0.0 - - 10 - - - -
22/11:00pm 14.1 NE 3 3 1019.0 - 0.0 - - 10 - - - -
22/10:30pm 15.4 NNE 1 4 1019.3 - 0.0 - - 10 - - - -
22/10:00pm 15.4 N 1 4 1019.5 - 0.0 - - 10 - - - -
22/09:30pm 17.2 N 6 8 1019.9 - 0.0 - - 10 - - - -
22/09:00pm 17.4 NNE 7 10 1020.0 F 0.0 - - 10 - - - -
22/08:30pm 17.6 NNE 6 7 1020.2 - 0.0 - - 10 - - - -
22/08:00pm 17.9 NNE 5 7 1020.2 - 0.0 - - 10 - - - -
22/07:30pm 18.4 NE 6 8 1020.2 - 0.0 - - 10 - - - -
22/07:00pm 18.9 NE 7 9 1020.1 - 0.0 - - 10 - - - -
22/06:30pm 19.2 NE 6 9 1020.2 - 0.0 - - 10 - - - -
22/06:00pm 19.7 NE 9 12 1020.3 F 0.0 - - 10 - - - -
22/05:30pm 19.7 ENE 7 9 1020.1 - 0.0 - - 10 - - - -
22/05:00pm 20.4 ENE 7 9 1020.3 - 0.0 - - 10 - - - -
22/04:30pm 21.6 NE 8 10 1020.3 - 0.0 - - 10 - - - -
22/04:00pm 22.7 ENE 7 11 1020.3 - 0.0 - - 10 - - - -
22/03:30pm 23.4 E 8 12 1020.4 - 0.0 - - 10 - - - -
22/03:00pm 24.0 E 7 9 1020.5 F 0.0 - - 10 - - - -
22/02:30pm 24.6 E 3 10 1020.8 - 0.0 - - 10 - - - -
22/02:00pm 24.5 W 3 7 1021.0 - 0.0 - - 10 - - - -
22/01:30pm 24.3 N 4 8 1021.1 - 0.0 - - 10 - - - -
22/01:00pm 23.4 N 5 7 1021.5 - 0.0 - - 10 - - - -
22/12:30pm 22.7 N 5 7 1022.0 - 0.0 - - 10 - - - -
22/12:00pm 22.7 NNW 5 8 1022.6 F 0.0 - - 10 - - - -
22/11:30am 21.5 NNW 5 6 1023.3 - 0.0 - - 10 - - - -
22/11:00am 20.5 NW 5 7 1024.1 - 0.0 - - 10 - - - -
22/10:30am 20.0 WNW 7 9 1024.5 - 0.0 - - 10 - - - -
22/10:00am 19.1 NW 7 9 1024.7 - 0.0 - - 10 - - - -
22/09:30am 17.9 NW 9 13 1024.8 - 0.0 - - 10 - - - -
22/09:00am 17.1 WNW 6 8 1025.0 F 0.0 - - 10 - - - -
22/08:30am 16.0 W 5 5 1024.8 - 0.0 - - 10 - - - -
22/08:00am 15.1 WNW 4 5 1024.4 - 0.0 - - 9 - - - -
22/07:39am 13.0 NW 4 5 1024.4 - 0.0 - - 10 - - - -
22/07:30am 12.0 NNW 5 6 1024.4 - 0.0 - - 7 - - - -
22/07:00am 12.0 N 5 6 1024.3 - 0.0 - - 2 - - - -
22/06:30am 12.6 NW 3 4 1024.3 - 0.0 - - 0.2 - - - -
22/06:00am 12.2 NW 6 7 1024.4 S 0.0 - Cloudy 5 - - - -
22/05:31am 12.7 NNW 3 4 1024.1 - 0.0 - - 6 - - - -
22/05:30am 12.8 NNW 3 4 1024.1 - 0.0 - - 7 - - - -
22/05:00am 12.5 NNW 6 6 1024.2 - 0.0 - - 9 - - - -
22/04:30am 12.3 WNW 5 5 1023.9 - 0.0 - - 10 - - - -
22/04:00am 12.1 CALM 0 3 1023.9 - 0.0 - - 10 - - - -
22/03:30am 13.5 NE 3 4 1023.7 - 0.0 - - 10 - - - -
22/03:00am 13.1 CALM 0 0 1024.0 R 0.0 - Partly cloudy 10 - - - -
22/02:30am 12.8 CALM 0 2 1024.3 - 0.0 - - 10 - - - -
22/02:00am 13.5 CALM 0 0 1023.9 - 0.0 - - 10 - - - -
22/01:30am 13.2 CALM 0 0 1023.8 - 0.0 - - 10 - - - -
22/01:00am 12.8 CALM 0 0 1024.2 - 0.0 - - 10 - - - -
22/12:30am 13.6 CALM 0 0 1024.0 - 0.0 - - 10 - - - -
22/12:00am 13.4 E 4 5 1024.3 F 0.0 - Partly cloudy 10 - - - -
 
Date/Time
EST
Temp

°C
Wind Pressure Rain
since 9am
mm
Weather Cloud Vis
km
Sea
Height
m
Swell
Dir
 
Speed
knots
Gust
knots
hPa Trend Height
m
Period
s
Dir
21/11:30pm 14.9 E 4 5 1024.6 - 0.0 - - 10 - - - -
21/11:00pm 14.1 CALM 0 0 1024.8 - 0.0 - - 10 - - - -
21/10:30pm 14.9 CALM 0 0 1024.8 - 0.0 - - 10 - - - -
21/10:00pm 14.2 CALM 0 0 1025.1 - 0.0 - - 10 - - - -
21/09:30pm 14.5 E 2 4 1025.2 - 0.0 - - 10 - - - -
21/09:00pm 15.3 NE 4 5 1025.2 F 0.0 - Cloudy 10 - - - -
21/08:30pm 15.4 ENE 4 5 1025.2 - 0.0 - - 10 - - - -
21/08:00pm 16.0 E 4 5 1025.1 - 0.0 - - 10 - - - -
21/07:30pm 16.8 ENE 5 5 1025.1 - 0.0 - - 10 - - - -
21/07:00pm 17.0 NE 5 7 1024.8 - 0.0 - - 10 - - - -
21/06:30pm 17.3 ENE 4 5 1024.6 - 0.0 - - 10 - - - -

Other Formats:

Comma delimited format used in spreadsheet applications
http://www.bom.gov.au/fwo/IDN60701/IDN60701.94776.axf

JavaScript Object Notation format (JSON) in row-major order
http://www.bom.gov.au/fwo/IDN60701/IDN60701.94776.json